Kaio Maru — JD2067 — position and weather

sailwx.info

Track history (hours):
 
Tides and Currents Weather Stations Pressure Air Temp Water Temp Dewpoint Dewpoint Depression Visibility Wind Speed Wind Dir Waves Ship Positions

Kaio Maru

Last reported at 2014-Dec-20 02:33 UTC. Time now 2014-Dec-20 03:01 UTC.
Position N 35°37' E 139°46'.

Length 36 m; draft 3.2 m.

Type: Tug. MMSI: 431001455.

Date/timePositionNaut miles runAvg speedWind from/ knotsBaromVisibWave heightAir tempDewpointWater temp
2014-Dec-20 02:33N 35°37' E 139°46'1 1.2
2014-Dec-20 01:27N 35°38' E 139°46'0 0.0
2014-Dec-19 23:03N 35°38' E 139°46'0 0.0
2014-Dec-19 20:29N 35°38' E 139°46'0 0.0
2014-Dec-19 14:30N 35°38' E 139°46'0 0.0
2014-Dec-19 12:29N 35°38' E 139°46'3 0.9
2014-Dec-19 09:29N 35°36' E 139°47'2 1.4
2014-Dec-19 08:22N 35°37' E 139°46'2 0.2
2014-Dec-19 00:25N 35°39' E 139°46'1 0.6
2014-Dec-18 23:15N 35°38' E 139°45'0 0.0
2014-Dec-18 22:29N 35°38' E 139°45'0 0.2
2014-Dec-18 21:24N 35°38' E 139°46'2 2.2
2014-Dec-18 20:30N 35°36' E 139°46'2 0.1
2014-Dec-17 23:30N 35°38' E 139°46'1 1.5
2014-Dec-17 22:31N 35°37' E 139°46'2 1.3
2014-Dec-17 21:22N 35°38' E 139°46'0 0.0
2014-Dec-17 20:04N 35°38' E 139°46'0 0.0
2014-Dec-17 19:16N 35°38' E 139°46'0 0.0
2014-Dec-17 16:32N 35°38' E 139°46'0 0.0
2014-Dec-17 15:33N 35°38' E 139°46'0 0.0
2014-Dec-17 14:33N 35°38' E 139°46'0 0.0
2014-Dec-17 13:33N 35°38' E 139°46'0 0.0
2014-Dec-17 12:30N 35°38' E 139°46'0 0.0
2014-Dec-17 11:31N 35°38' E 139°46'0 0.0
2014-Dec-17 10:27N 35°38' E 139°46'1 0.9
2014-Dec-17 09:07N 35°37' E 139°46'0 0.5
2014-Dec-17 08:26N 35°37' E 139°46'2 1.4
2014-Dec-17 07:22N 35°38' E 139°46'2 0.2
2014-Dec-16 22:33N 35°36' E 139°46'4 3.8
2014-Dec-16 21:33N 35°34' E 139°50'5 5.2
2014-Dec-16 20:33N 35°38' E 139°45'0 0.1
2014-Dec-16 19:28N 35°38' E 139°46'0 0.0
2014-Dec-16 18:29N 35°38' E 139°46'0 0.0
2014-Dec-16 17:10N 35°38' E 139°46'0 0.0
2014-Dec-16 16:27N 35°38' E 139°46'0 0.0
2014-Dec-16 11:09N 35°38' E 139°46'2 3.0
2014-Dec-16 10:27N 35°36' E 139°47'1 1.0
2014-Dec-16 09:33N 35°35' E 139°47'2 1.6
2014-Dec-16 08:33N 35°37' E 139°46'1 1.1
2014-Dec-16 07:20N 35°38' E 139°46'0 0.0
2014-Dec-16 02:18N 35°38' E 139°46'3 0.9
2014-Dec-15 22:34N 35°35' E 139°47'1 0.9
2014-Dec-15 21:33N 35°36' E 139°47'1 0.6
2014-Dec-15 20:28N 35°37' E 139°47'2 1.7
2014-Dec-15 19:33N 35°35' E 139°47'3 3.3
2014-Dec-15 18:31N 35°38' E 139°45'0 0.1
2014-Dec-15 17:29N 35°38' E 139°46'0 0.0
2014-Dec-15 16:22N 35°38' E 139°46'0 0.0
2014-Dec-15 15:29N 35°38' E 139°46'0 0.0
2014-Dec-15 14:33N 35°38' E 139°46'0 0.0
2014-Dec-15 10:25N 35°38' E 139°46'0 0.0
2014-Dec-15 09:14N 35°38' E 139°46'0 0.0
2014-Dec-15 08:25N 35°38' E 139°46'0 0.0
2014-Dec-15 07:14N 35°38' E 139°46'0 0.0
2014-Dec-15 06:31N 35°38' E 139°46'0 0.0
2014-Dec-15 05:08N 35°38' E 139°46'0 0.0
2014-Dec-15 04:24N 35°38' E 139°46'1 1.3
2014-Dec-15 03:22N 35°37' E 139°46'3 4.2
2014-Dec-15 02:33N 35°34' E 139°49'2 2.0
2014-Dec-15 01:34N 35°35' E 139°47'3 2.7
2014-Dec-15 00:30N 35°38' E 139°46'0 0.1
2014-Dec-14 22:13N 35°38' E 139°45'0 0.0
2014-Dec-14 20:20N 35°38' E 139°45'3 0.1
2014-Dec-13 03:33N 35°36' E 139°47'1 1.1
2014-Dec-13 02:32N 35°37' E 139°46'3 0.2
2014-Dec-12 10:28N 35°36' E 139°50'3 2.6
2014-Dec-12 09:29N 35°36' E 139°47'2 0.1
2014-Dec-11 12:32N 35°38' E 139°46'6 5.9
2014-Dec-11 11:31N 35°33' E 139°51'6 4.9
2014-Dec-11 10:14N 35°38' E 139°46'0 0.0
2014-Dec-11 09:26N 35°38' E 139°46'2 2.1
2014-Dec-11 08:32N 35°36' E 139°46'2 1.6
2014-Dec-11 07:24N 35°38' E 139°46'0 0.0
2014-Dec-11 05:30N 35°38' E 139°46'0 0.1
2014-Dec-11 00:20N 35°38' E 139°46'0 0.0
2014-Dec-10 18:07N 35°38' E 139°46'0 0.0
2014-Dec-10 16:33N 35°38' E 139°46'0 0.0
2014-Dec-10 15:08N 35°38' E 139°46'0 0.0
2014-Dec-10 14:30N 35°38' E 139°46'0 0.0
2014-Dec-10 13:18N 35°38' E 139°46'  
Track history (hours):
 
Tides and Currents Weather Stations Pressure Air Temp Water Temp Dewpoint Dewpoint Depression Visibility Wind Speed Wind Dir Waves Ship Positions

Kaio Maru

Last reported at 2014-Dec-20 02:33 UTC. Time now 2014-Dec-20 03:01 UTC.
Position N 35°37' E 139°46'.

Length 36 m; draft 3.2 m.

Type: Tug. MMSI: 431001455.

Date/timePositionNaut miles runAvg speedWind from/ knotsBaromVisibWave heightAir tempDewpointWater temp
2014-Dec-20 02:33N 35°37' E 139°46'1 1.2
2014-Dec-20 01:27N 35°38' E 139°46'0 0.0
2014-Dec-19 23:03N 35°38' E 139°46'0 0.0
2014-Dec-19 20:29N 35°38' E 139°46'0 0.0
2014-Dec-19 14:30N 35°38' E 139°46'0 0.0
2014-Dec-19 12:29N 35°38' E 139°46'3 0.9
2014-Dec-19 09:29N 35°36' E 139°47'2 1.4
2014-Dec-19 08:22N 35°37' E 139°46'2 0.2
2014-Dec-19 00:25N 35°39' E 139°46'1 0.6
2014-Dec-18 23:15N 35°38' E 139°45'0 0.0
2014-Dec-18 22:29N 35°38' E 139°45'0 0.2
2014-Dec-18 21:24N 35°38' E 139°46'2 2.2
2014-Dec-18 20:30N 35°36' E 139°46'2 0.1
2014-Dec-17 23:30N 35°38' E 139°46'1 1.5
2014-Dec-17 22:31N 35°37' E 139°46'2 1.3
2014-Dec-17 21:22N 35°38' E 139°46'0 0.0
2014-Dec-17 20:04N 35°38' E 139°46'0 0.0
2014-Dec-17 19:16N 35°38' E 139°46'0 0.0
2014-Dec-17 16:32N 35°38' E 139°46'0 0.0
2014-Dec-17 15:33N 35°38' E 139°46'0 0.0
2014-Dec-17 14:33N 35°38' E 139°46'0 0.0
2014-Dec-17 13:33N 35°38' E 139°46'0 0.0
2014-Dec-17 12:30N 35°38' E 139°46'0 0.0
2014-Dec-17 11:31N 35°38' E 139°46'0 0.0
2014-Dec-17 10:27N 35°38' E 139°46'1 0.9
2014-Dec-17 09:07N 35°37' E 139°46'0 0.5
2014-Dec-17 08:26N 35°37' E 139°46'2 1.4
2014-Dec-17 07:22N 35°38' E 139°46'2 0.2
2014-Dec-16 22:33N 35°36' E 139°46'4 3.8
2014-Dec-16 21:33N 35°34' E 139°50'5 5.2
2014-Dec-16 20:33N 35°38' E 139°45'0 0.1
2014-Dec-16 19:28N 35°38' E 139°46'0 0.0
2014-Dec-16 18:29N 35°38' E 139°46'0 0.0
2014-Dec-16 17:10N 35°38' E 139°46'0 0.0
2014-Dec-16 16:27N 35°38' E 139°46'0 0.0
2014-Dec-16 11:09N 35°38' E 139°46'2 3.0
2014-Dec-16 10:27N 35°36' E 139°47'1 1.0
2014-Dec-16 09:33N 35°35' E 139°47'2 1.6
2014-Dec-16 08:33N 35°37' E 139°46'1 1.1
2014-Dec-16 07:20N 35°38' E 139°46'0 0.0
2014-Dec-16 02:18N 35°38' E 139°46'3 0.9
2014-Dec-15 22:34N 35°35' E 139°47'1 0.9
2014-Dec-15 21:33N 35°36' E 139°47'1 0.6
2014-Dec-15 20:28N 35°37' E 139°47'2 1.7
2014-Dec-15 19:33N 35°35' E 139°47'3 3.3
2014-Dec-15 18:31N 35°38' E 139°45'0 0.1
2014-Dec-15 17:29N 35°38' E 139°46'0 0.0
2014-Dec-15 16:22N 35°38' E 139°46'0 0.0
2014-Dec-15 15:29N 35°38' E 139°46'0 0.0
2014-Dec-15 14:33N 35°38' E 139°46'0 0.0
2014-Dec-15 10:25N 35°38' E 139°46'0 0.0
2014-Dec-15 09:14N 35°38' E 139°46'0 0.0
2014-Dec-15 08:25N 35°38' E 139°46'0 0.0
2014-Dec-15 07:14N 35°38' E 139°46'0 0.0
2014-Dec-15 06:31N 35°38' E 139°46'0 0.0
2014-Dec-15 05:08N 35°38' E 139°46'0 0.0
2014-Dec-15 04:24N 35°38' E 139°46'1 1.3
2014-Dec-15 03:22N 35°37' E 139°46'3 4.2
2014-Dec-15 02:33N 35°34' E 139°49'2 2.0
2014-Dec-15 01:34N 35°35' E 139°47'3 2.7
2014-Dec-15 00:30N 35°38' E 139°46'0 0.1
2014-Dec-14 22:13N 35°38' E 139°45'0 0.0
2014-Dec-14 20:20N 35°38' E 139°45'3 0.1
2014-Dec-13 03:33N 35°36' E 139°47'1 1.1
2014-Dec-13 02:32N 35°37' E 139°46'3 0.2
2014-Dec-12 10:28N 35°36' E 139°50'3 2.6
2014-Dec-12 09:29N 35°36' E 139°47'2 0.1
2014-Dec-11 12:32N 35°38' E 139°46'6 5.9
2014-Dec-11 11:31N 35°33' E 139°51'6 4.9
2014-Dec-11 10:14N 35°38' E 139°46'0 0.0
2014-Dec-11 09:26N 35°38' E 139°46'2 2.1
2014-Dec-11 08:32N 35°36' E 139°46'2 1.6
2014-Dec-11 07:24N 35°38' E 139°46'0 0.0
2014-Dec-11 05:30N 35°38' E 139°46'0 0.1
2014-Dec-11 00:20N 35°38' E 139°46'0 0.0
2014-Dec-10 18:07N 35°38' E 139°46'0 0.0
2014-Dec-10 16:33N 35°38' E 139°46'0 0.0
2014-Dec-10 15:08N 35°38' E 139°46'0 0.0
2014-Dec-10 14:30N 35°38' E 139°46'0 0.0
2014-Dec-10 13:18N 35°38' E 139°46'  

Dump ship's entire track history